createdAt,value
2018-02-19T00:00:49.554Z,17.73
2018-02-19T00:03:17.668Z,17.50
2018-02-19T00:05:45.804Z,17.87
2018-02-19T00:08:13.933Z,16.83
2018-02-19T00:10:42.089Z,17.10
2018-02-19T00:13:10.213Z,18.43
2018-02-19T00:15:38.370Z,17.27
2018-02-19T00:18:07.256Z,17.27
2018-02-19T00:20:36.164Z,17.50
2018-02-19T00:23:04.298Z,18.60
2018-02-19T00:25:32.445Z,17.60
2018-02-19T00:28:00.566Z,17.47
2018-02-19T00:30:29.478Z,17.30
2018-02-19T00:32:57.597Z,16.00
2018-02-19T00:35:25.734Z,16.87
2018-02-19T00:37:53.848Z,17.77
2018-02-19T00:40:21.981Z,16.50
2018-02-19T00:42:50.138Z,18.50
2018-02-19T00:45:19.038Z,17.97
2018-02-19T00:47:47.143Z,16.97
2018-02-19T00:50:15.279Z,17.40
2018-02-19T00:52:43.396Z,18.10
2018-02-19T00:55:11.963Z,17.10
2018-02-19T00:57:40.082Z,18.03
2018-02-19T01:00:08.997Z,17.33
2018-02-19T01:02:37.130Z,16.80
2018-02-19T01:05:05.317Z,17.67
2018-02-19T01:07:33.423Z,19.57
2018-02-19T01:10:01.570Z,18.13
2018-02-19T01:12:30.740Z,16.67
2018-02-19T01:15:00.234Z,18.50
2018-02-19T01:17:28.344Z,17.03
2018-02-19T01:19:56.485Z,16.53
2018-02-19T01:22:24.601Z,17.47
2018-02-19T01:24:53.499Z,16.40
2018-02-19T01:27:21.625Z,17.07
2018-02-19T01:29:49.763Z,16.77
2018-02-19T01:32:17.872Z,17.60
2018-02-19T01:34:46.007Z,17.00
2018-02-19T01:37:14.929Z,18.83
2018-02-19T01:39:43.064Z,19.30
2018-02-19T01:42:11.185Z,16.13
2018-02-19T01:44:39.331Z,16.90
2018-02-19T01:47:07.449Z,20.00
2018-02-19T01:49:35.592Z,17.13
2018-02-19T01:52:03.760Z,18.10
2018-02-19T01:54:31.909Z,17.57
2018-02-19T01:57:00.036Z,19.67
2018-02-19T01:59:29.032Z,17.80
2018-02-19T02:01:57.160Z,18.03
2018-02-19T02:04:25.315Z,17.47
2018-02-19T02:06:54.192Z,16.90
2018-02-19T02:09:23.100Z,16.97
2018-02-19T02:11:51.436Z,17.80
2018-02-19T02:14:19.590Z,17.70
2018-02-19T02:16:47.705Z,17.90
2018-02-19T02:19:18.531Z,17.73
2018-02-19T02:21:46.678Z,17.90
2018-02-19T02:24:14.794Z,18.20
2018-02-19T02:26:43.702Z,17.10
2018-02-19T02:29:11.819Z,17.73
2018-02-19T02:31:39.953Z,17.30
2018-02-19T02:34:08.080Z,17.47
2018-02-19T02:36:36.243Z,18.10
2018-02-19T02:39:04.370Z,17.37
2018-02-19T02:41:32.511Z,18.73
2018-02-19T02:44:00.625Z,17.30
2018-02-19T02:46:28.776Z,17.43
2018-02-19T02:48:57.669Z,17.87
2018-02-19T02:51:26.588Z,17.33
2018-02-19T02:53:54.708Z,17.17
2018-02-19T02:56:22.845Z,16.90
2018-02-19T02:58:50.966Z,18.47
2018-02-19T03:01:20.490Z,16.80
2018-02-19T03:03:48.611Z,18.77
2018-02-19T03:06:16.753Z,17.63
2018-02-19T03:08:44.864Z,19.77
2018-02-19T03:11:13.014Z,18.40
2018-02-19T03:13:41.130Z,17.87
2018-02-19T03:16:09.278Z,19.20
2018-02-19T03:18:37.394Z,18.80
2018-02-19T03:21:06.296Z,17.57
2018-02-19T03:23:34.840Z,20.40
2018-02-19T03:26:05.018Z,20.93
2018-02-19T03:28:33.131Z,20.93
2018-02-19T03:31:01.300Z,18.20
2018-02-19T03:33:29.429Z,19.40
2018-02-19T03:35:57.564Z,19.30
2018-02-19T03:38:25.702Z,18.77
2018-02-19T03:40:53.837Z,17.40
2018-02-19T03:43:23.523Z,19.33
2018-02-19T03:45:51.697Z,19.30
2018-02-19T03:48:19.820Z,18.77
2018-02-19T03:50:47.965Z,19.30
2018-02-19T03:53:16.835Z,19.20
2018-02-19T03:55:44.981Z,18.90
2018-02-19T03:58:13.095Z,19.43
2018-02-19T04:00:41.994Z,20.80
2018-02-19T04:03:10.880Z,20.50
2018-02-19T04:05:39.804Z,20.57
2018-02-19T04:08:07.927Z,19.67
2018-02-19T04:10:36.075Z,22.17
2018-02-19T04:13:04.189Z,20.70
2018-02-19T04:15:33.104Z,19.97
2018-02-19T04:18:01.225Z,20.47
2018-02-19T04:20:29.368Z,20.87
2018-02-19T04:22:57.480Z,20.63
2018-02-19T04:25:25.636Z,20.50
2018-02-19T04:27:56.708Z,19.93
2018-02-19T04:30:24.851Z,21.73
2018-02-19T04:32:53.488Z,20.70
2018-02-19T04:35:21.629Z,20.23
2018-02-19T04:37:49.746Z,21.07
2018-02-19T04:40:17.884Z,19.07
2018-02-19T04:42:46.454Z,21.57
2018-02-19T04:45:15.168Z,23.10
2018-02-19T04:47:44.058Z,21.30
2018-02-19T04:50:14.753Z,23.00
2018-02-19T04:52:42.921Z,20.37
2018-02-19T04:55:11.026Z,19.70
2018-02-19T04:57:39.160Z,21.83
2018-02-19T05:00:07.280Z,21.43
2018-02-19T05:02:36.758Z,20.70
2018-02-19T05:05:04.870Z,21.60
2018-02-19T05:07:34.235Z,21.43
2018-02-19T05:10:02.348Z,21.47
2018-02-19T05:12:30.529Z,20.80
2018-02-19T05:14:58.639Z,21.37
2018-02-19T05:17:27.688Z,21.10
2018-02-19T05:19:56.570Z,20.60
2018-02-19T05:22:25.920Z,22.60
2018-02-19T05:24:54.042Z,20.03
2018-02-19T05:27:22.947Z,21.97
2018-02-19T05:29:51.837Z,22.40
2018-02-19T05:32:19.985Z,22.50
2018-02-19T05:34:50.541Z,21.00
2018-02-19T05:37:18.704Z,21.53
2018-02-19T05:39:47.592Z,20.57
2018-02-19T05:42:16.497Z,20.13
2018-02-19T05:44:44.612Z,22.00
2018-02-19T05:47:12.776Z,21.00
2018-02-19T05:49:40.897Z,20.10
2018-02-19T05:52:09.041Z,22.70
2018-02-19T05:54:37.156Z,20.60
2018-02-19T05:57:06.066Z,20.90
2018-02-19T05:59:34.202Z,23.10
2018-02-19T06:02:02.346Z,22.50
2018-02-19T06:04:30.480Z,20.37
2018-02-19T06:06:58.637Z,24.13
2018-02-19T06:09:27.526Z,22.27
2018-02-19T06:11:55.671Z,24.20
2018-02-19T06:14:23.784Z,21.77
2018-02-19T06:16:52.698Z,20.70
2018-02-19T06:19:20.818Z,20.30
2018-02-19T06:21:49.080Z,22.83
2018-02-19T06:24:17.185Z,21.03
2018-02-19T06:26:45.332Z,21.87
2018-02-19T06:29:15.204Z,22.73
2018-02-19T06:31:43.376Z,20.70
2018-02-19T06:34:11.484Z,21.57
2018-02-19T06:36:39.623Z,22.50
2018-02-19T06:39:07.737Z,24.10
2018-02-19T06:41:35.954Z,24.13
2018-02-19T06:44:04.213Z,23.23
2018-02-19T06:46:32.345Z,23.53
2018-02-19T06:49:00.466Z,22.17
2018-02-19T06:51:28.606Z,21.47
2018-02-19T06:53:56.718Z,21.43
2018-02-19T06:56:25.307Z,21.87
2018-02-19T06:58:54.192Z,22.10
2018-02-19T07:01:23.123Z,21.60
2018-02-19T07:03:51.238Z,23.80
2018-02-19T07:06:19.441Z,23.70
2018-02-19T07:08:48.328Z,24.37
2018-02-19T07:11:17.247Z,22.60
2018-02-19T07:13:45.355Z,23.43
2018-02-19T07:16:14.135Z,22.87
2018-02-19T07:18:42.521Z,21.90
2018-02-19T07:21:10.760Z,23.50
2018-02-19T07:23:38.990Z,21.90
2018-02-19T07:26:07.896Z,24.13
2018-02-19T07:28:36.037Z,23.07
2018-02-19T07:31:04.152Z,25.27
2018-02-19T07:33:33.072Z,22.87
2018-02-19T07:36:01.189Z,23.00
2018-02-19T07:38:29.341Z,27.23
2018-02-19T07:40:57.473Z,23.60
2018-02-19T07:43:26.423Z,22.50
2018-02-19T07:45:54.552Z,23.20
2018-02-19T07:48:22.691Z,23.30
2018-02-19T07:50:50.816Z,22.40
2018-02-19T07:53:18.963Z,24.20
2018-02-19T07:55:47.844Z,25.20
2018-02-19T07:58:16.740Z,23.20
2018-02-19T08:00:45.696Z,22.10
2018-02-19T08:03:13.847Z,22.87
2018-02-19T08:05:41.976Z,22.87
2018-02-19T08:08:10.880Z,22.87
2018-02-19T08:10:39.854Z,21.87
2018-02-19T08:13:07.988Z,22.97
2018-02-19T08:15:36.105Z,27.00
2018-02-19T08:18:05.016Z,24.57
2018-02-19T08:20:33.158Z,33.33
2018-02-19T08:23:01.309Z,25.17
2018-02-19T08:25:29.414Z,29.03
2018-02-19T08:27:58.324Z,29.70
2018-02-19T08:30:26.435Z,28.40
2018-02-19T08:32:54.574Z,25.50
2018-02-19T08:35:22.687Z,23.00
2018-02-19T08:37:51.368Z,25.07
2018-02-19T08:40:19.484Z,25.70
2018-02-19T08:42:48.412Z,24.50
2018-02-19T08:45:16.536Z,25.43
2018-02-19T08:47:44.691Z,26.60
2018-02-19T08:50:12.804Z,25.60
2018-02-19T08:52:41.713Z,26.07
2018-02-19T08:55:09.828Z,23.97
2018-02-19T08:57:37.968Z,25.73
2018-02-19T09:00:06.092Z,25.57
2018-02-19T09:02:35.840Z,23.90
2018-02-19T09:05:04.002Z,25.40
2018-02-19T09:07:32.934Z,26.97
2018-02-19T09:10:01.046Z,26.30
2018-02-19T09:12:29.190Z,24.80
2018-02-19T09:14:57.305Z,26.87
2018-02-19T09:17:25.521Z,25.00
2018-02-19T09:19:53.660Z,26.07
2018-02-19T09:22:22.569Z,25.97
2018-02-19T09:24:50.688Z,24.43
2018-02-19T09:27:18.845Z,26.50
2018-02-19T09:29:47.746Z,26.27
2018-02-19T09:32:15.878Z,24.03
2018-02-19T09:34:43.992Z,24.83
2018-02-19T09:37:12.134Z,23.87
2018-02-19T09:39:40.244Z,26.37
2018-02-19T09:42:08.388Z,26.73
2018-02-19T09:44:36.633Z,27.13
2018-02-19T09:47:04.783Z,28.10
2018-02-19T09:49:34.105Z,24.07
2018-02-19T09:52:03.014Z,27.07
2018-02-19T09:54:32.269Z,26.50
2018-02-19T09:57:00.397Z,26.10
2018-02-19T09:59:28.534Z,29.70
2018-02-19T10:01:57.419Z,25.40
2018-02-19T10:04:25.577Z,26.20
2018-02-19T10:06:53.696Z,23.60
2018-02-19T10:09:21.846Z,25.37
2018-02-19T10:11:50.737Z,25.33
2018-02-19T10:14:19.646Z,24.27
2018-02-19T10:16:47.771Z,23.87
2018-02-19T10:19:16.677Z,23.90
2018-02-19T10:21:44.856Z,25.87
2018-02-19T10:24:13.051Z,24.43
2018-02-19T10:26:41.928Z,23.80
2018-02-19T10:29:10.072Z,22.90
2018-02-19T10:31:38.538Z,20.90
2018-02-19T10:34:06.770Z,22.00
2018-02-19T10:36:35.681Z,24.03
2018-02-19T10:39:03.833Z,22.37
2018-02-19T10:41:32.732Z,21.90
2018-02-19T10:44:01.635Z,21.77
2018-02-19T10:46:29.776Z,22.47
2018-02-19T10:48:57.923Z,22.30
2018-02-19T10:51:26.046Z,22.83
2018-02-19T10:53:54.953Z,21.57
2018-02-19T10:56:23.107Z,22.50
2018-02-19T10:58:52.025Z,22.83
2018-02-19T11:01:20.144Z,21.80
2018-02-19T11:03:48.293Z,22.23
2018-02-19T11:06:16.419Z,23.03
2018-02-19T11:08:45.325Z,22.03
2018-02-19T11:11:13.440Z,25.27
2018-02-19T11:13:41.592Z,23.80
2018-02-19T11:16:09.712Z,22.20
2018-02-19T11:18:38.369Z,22.13
2018-02-19T11:21:06.496Z,23.57
2018-02-19T11:23:34.641Z,24.40
2018-02-19T11:26:02.760Z,23.43
2018-02-19T11:28:30.918Z,22.43
2018-02-19T11:30:59.032Z,23.40
2018-02-19T11:33:27.174Z,23.27
2018-02-19T11:35:55.345Z,25.00
2018-02-19T11:38:24.221Z,22.53
2018-02-19T11:40:53.473Z,24.70
2018-02-19T11:43:21.613Z,22.07
2018-02-19T11:45:49.733Z,22.13
2018-02-19T11:48:17.870Z,27.03
2018-02-19T11:50:45.991Z,24.17
2018-02-19T11:53:14.138Z,23.70
2018-02-19T11:55:42.265Z,22.93
2018-02-19T11:58:11.178Z,22.57
2018-02-19T12:00:39.285Z,23.37
2018-02-19T12:03:07.426Z,25.67
2018-02-19T12:05:35.548Z,23.40
2018-02-19T12:08:03.690Z,22.87
2018-02-19T12:10:31.836Z,23.50
2018-02-19T12:12:59.985Z,25.10
2018-02-19T12:15:28.868Z,24.23
2018-02-19T12:17:57.008Z,24.70
2018-02-19T12:20:25.896Z,24.30
2018-02-19T12:22:54.038Z,22.17
2018-02-19T12:25:22.185Z,23.67
2018-02-19T12:27:51.256Z,23.13
2018-02-19T12:30:20.036Z,22.60
2018-02-19T12:32:48.147Z,22.17
2018-02-19T12:35:17.071Z,24.60
2018-02-19T12:37:45.181Z,22.20
2018-02-19T12:40:13.334Z,22.60
2018-02-19T12:42:41.449Z,22.20
2018-02-19T12:45:10.404Z,21.00
2018-02-19T12:47:38.504Z,23.80
2018-02-19T12:50:06.650Z,22.33
2018-02-19T12:52:34.768Z,22.80
2018-02-19T12:55:03.680Z,23.97
2018-02-19T12:57:31.796Z,23.27
2018-02-19T12:59:59.940Z,23.10
2018-02-19T13:02:28.052Z,22.50
2018-02-19T13:04:56.204Z,22.33
2018-02-19T13:07:25.240Z,24.83
2018-02-19T13:09:54.160Z,22.40
2018-02-19T13:12:22.329Z,22.30
2018-02-19T13:14:50.471Z,21.23
2018-02-19T13:17:18.606Z,24.57
2018-02-19T13:19:47.390Z,23.23
2018-02-19T13:22:16.251Z,23.80
2018-02-19T13:24:45.154Z,22.67
2018-02-19T13:27:13.273Z,22.13
2018-02-19T13:29:41.430Z,23.87
2018-02-19T13:32:09.573Z,20.10
2018-02-19T13:34:37.746Z,22.03
2018-02-19T13:37:06.531Z,23.80
2018-02-19T13:42:15.420Z,24.10
2018-02-19T13:44:45.579Z,23.57
2018-02-19T13:47:14.467Z,25.40
2018-02-19T13:49:42.644Z,23.23
2018-02-19T13:52:11.530Z,23.03
2018-02-19T13:54:39.665Z,22.90
2018-02-19T13:57:07.784Z,23.47
2018-02-19T13:59:36.693Z,24.50
2018-02-19T14:02:04.850Z,24.00
2018-02-19T14:04:32.981Z,22.20
2018-02-19T14:07:01.892Z,23.43
2018-02-19T14:09:30.041Z,22.07
2018-02-19T14:11:58.156Z,23.30
2018-02-19T14:14:26.296Z,25.47
2018-02-19T14:16:54.416Z,23.30
2018-02-19T14:19:23.325Z,22.80
2018-02-19T14:21:51.439Z,23.47
2018-02-19T14:24:19.646Z,23.80
2018-02-19T14:26:47.717Z,23.00
2018-02-19T14:29:16.684Z,22.00
2018-02-19T14:31:44.807Z,23.30
2018-02-19T14:34:12.950Z,23.90
2018-02-19T14:36:41.331Z,24.77
2018-02-19T14:39:11.578Z,25.50
2018-02-19T14:41:40.475Z,22.77
2018-02-19T14:44:08.701Z,23.20
2018-02-19T14:46:36.875Z,22.57
2018-02-19T14:49:05.030Z,24.40
2018-02-19T14:51:33.212Z,23.67
2018-02-19T14:54:01.328Z,23.87
2018-02-19T14:56:30.214Z,24.27
2018-02-19T14:58:58.354Z,22.10
2018-02-19T15:01:26.471Z,23.00
2018-02-19T15:03:54.685Z,25.10
2018-02-19T15:06:22.815Z,21.23
2018-02-19T15:08:52.094Z,22.63
2018-02-19T15:11:20.217Z,24.47
2018-02-19T15:13:48.365Z,24.00
2018-02-19T15:16:17.272Z,23.60
2018-02-19T15:18:45.401Z,21.90
2018-02-19T15:21:13.556Z,22.83
2018-02-19T15:23:41.712Z,22.23
2018-02-19T15:26:09.858Z,23.60
2018-02-19T15:28:38.749Z,25.73
2018-02-19T15:31:06.924Z,22.00
2018-02-19T15:33:35.810Z,22.20
2018-02-19T15:36:04.714Z,22.13
2018-02-19T15:38:32.849Z,22.43
2018-02-19T15:41:01.046Z,23.63
2018-02-19T15:43:29.970Z,23.53
2018-02-19T15:45:58.108Z,23.13
2018-02-19T15:48:26.996Z,23.23
2018-02-19T15:50:55.900Z,22.30
2018-02-19T15:53:24.785Z,20.70
2018-02-19T15:55:53.696Z,22.00
2018-02-19T15:58:22.388Z,23.43
2018-02-19T16:00:50.534Z,22.50
2018-02-19T16:03:19.415Z,20.83
2018-02-19T16:05:47.565Z,22.07
2018-02-19T16:08:16.833Z,22.40
2018-02-19T16:10:44.978Z,22.40
2018-02-19T16:13:13.864Z,20.87
2018-02-19T16:15:42.769Z,22.33
2018-02-19T16:18:11.904Z,21.33
2018-02-19T16:20:40.042Z,22.80
2018-02-19T16:23:08.919Z,22.63
2018-02-19T16:25:37.825Z,21.00
2018-02-19T16:28:05.942Z,21.67
2018-02-19T16:30:34.092Z,21.20
2018-02-19T16:33:02.221Z,21.00
2018-02-19T16:35:31.249Z,24.40
2018-02-19T16:38:00.433Z,22.20
2018-02-19T16:40:29.341Z,22.40
2018-02-19T16:42:57.456Z,24.50
2018-02-19T16:45:25.606Z,22.13
2018-02-19T16:47:54.279Z,22.27
2018-02-19T16:50:22.458Z,21.23
2018-02-19T16:52:50.593Z,21.13
2018-02-19T16:55:20.121Z,19.80
2018-02-19T16:57:48.237Z,21.43
2018-02-19T17:00:16.421Z,18.23
2018-02-19T17:02:44.549Z,21.60
2018-02-19T17:05:12.705Z,21.10
2018-02-19T17:07:41.611Z,20.70
2018-02-19T17:10:09.748Z,20.57
2018-02-19T17:12:37.940Z,19.10
2018-02-19T17:15:06.168Z,26.20
2018-02-19T17:17:34.802Z,18.47
2018-02-19T17:20:05.232Z,23.10
2018-02-19T17:22:34.522Z,25.43
2018-02-19T17:25:04.341Z,18.57
2018-02-19T17:27:34.241Z,19.90
2018-02-19T17:30:02.385Z,19.00
2018-02-19T17:32:31.103Z,17.00
2018-02-19T17:35:01.566Z,17.57
2018-02-19T17:37:29.703Z,22.00
2018-02-19T17:39:57.878Z,18.70
2018-02-19T17:42:27.994Z,24.17
2018-02-19T17:44:56.282Z,20.47
2018-02-19T17:47:25.380Z,19.63
2018-02-19T17:49:53.933Z,20.90
2018-02-19T17:52:22.070Z,20.00
2018-02-19T17:54:50.208Z,18.60
2018-02-19T17:57:18.321Z,20.50
2018-02-19T17:59:47.710Z,21.43
2018-02-19T18:02:16.873Z,19.83
2018-02-19T18:04:45.011Z,20.13
2018-02-19T18:07:14.967Z,26.40
2018-02-19T18:09:45.977Z,24.13
2018-02-19T18:12:14.120Z,20.97
2018-02-19T18:14:46.791Z,20.50
2018-02-19T18:17:15.013Z,20.40
2018-02-19T18:19:43.411Z,21.80
2018-02-19T18:22:11.960Z,20.13
2018-02-19T18:24:40.180Z,19.83
2018-02-19T18:27:08.340Z,19.07
2018-02-19T18:29:36.456Z,17.60
2018-02-19T18:32:04.661Z,17.97
2018-02-19T18:34:32.817Z,18.50
2018-02-19T18:37:00.962Z,20.63
2018-02-19T18:39:30.216Z,18.87
2018-02-19T18:41:58.616Z,17.40
2018-02-19T18:44:27.632Z,18.37
2018-02-19T18:46:56.718Z,20.97
2018-02-19T18:49:24.835Z,19.00
2018-02-19T18:51:52.967Z,19.67
2018-02-19T18:54:21.854Z,18.53
2018-02-19T18:56:49.995Z,19.00
2018-02-19T18:59:18.639Z,19.10
2018-02-19T19:01:46.793Z,20.40
2018-02-19T19:04:15.333Z,19.73
2018-02-19T19:06:43.477Z,18.50
2018-02-19T19:09:23.339Z,19.27
2018-02-19T19:11:51.485Z,19.83
2018-02-19T19:14:19.601Z,18.40
2018-02-19T19:16:47.738Z,18.20
2018-02-19T19:19:15.873Z,17.70
2018-02-19T19:21:44.428Z,19.00
2018-02-19T19:24:14.074Z,16.40
2018-02-19T19:26:43.381Z,17.03
2018-02-19T19:29:13.405Z,19.67
2018-02-19T19:31:43.392Z,19.37
2018-02-19T19:34:11.517Z,21.20
2018-02-19T19:36:41.238Z,19.87
2018-02-19T19:39:09.351Z,24.53
2018-02-19T19:41:38.367Z,20.73
2018-02-19T19:44:07.253Z,20.47
2018-02-19T19:46:36.096Z,20.43
2018-02-19T19:49:04.220Z,18.57
2018-02-19T19:51:33.141Z,20.30
2018-02-19T19:54:01.258Z,18.93
2018-02-19T19:56:29.402Z,20.40
2018-02-19T19:58:57.920Z,19.23
2018-02-19T20:01:26.524Z,21.37
2018-02-19T20:03:55.412Z,20.53
2018-02-19T20:06:24.323Z,21.73
2018-02-19T20:08:54.797Z,20.63
2018-02-19T20:11:22.929Z,21.40
2018-02-19T20:13:51.042Z,21.53
2018-02-19T20:16:19.184Z,20.90
2018-02-19T20:18:48.620Z,20.80
2018-02-19T20:21:16.765Z,19.03
2018-02-19T20:23:44.884Z,21.90
2018-02-19T20:26:13.041Z,20.53
2018-02-19T20:28:41.153Z,19.43
2018-02-19T20:31:10.060Z,21.87
2018-02-19T20:33:38.184Z,20.50
2018-02-19T20:36:06.321Z,19.50
2018-02-19T20:38:35.747Z,22.23
2018-02-19T20:41:04.022Z,22.00
2018-02-19T20:43:32.128Z,25.20
2018-02-19T20:46:00.241Z,27.70
2018-02-19T20:48:30.100Z,24.23
2018-02-19T20:50:59.520Z,24.87
2018-02-19T20:53:27.656Z,25.13
2018-02-19T20:55:55.780Z,22.97
2018-02-19T20:58:24.689Z,22.07
2018-02-19T21:00:52.800Z,21.70
2018-02-19T21:03:20.940Z,22.30
2018-02-19T21:05:49.061Z,21.53
2018-02-19T21:08:17.214Z,21.63
2018-02-19T21:10:45.833Z,21.50
2018-02-19T21:13:14.042Z,22.30
2018-02-19T21:15:42.178Z,19.87
2018-02-19T21:18:10.400Z,22.13
2018-02-19T21:20:40.469Z,33.77
2018-02-19T21:23:08.639Z,65.07
2018-02-19T21:25:36.753Z,38.10
2018-02-19T21:28:04.925Z,28.50
2018-02-19T21:30:35.256Z,25.00
2018-02-19T21:33:03.410Z,27.77
2018-02-19T21:35:32.296Z,26.93
2018-02-19T21:38:01.231Z,25.40
2018-02-19T21:40:30.599Z,22.60
2018-02-19T21:43:00.769Z,23.67
2018-02-19T21:45:29.675Z,24.87
2018-02-19T21:47:57.825Z,26.73
2018-02-19T21:50:25.955Z,28.33
2018-02-19T21:52:54.873Z,28.70
2018-02-19T21:55:22.992Z,33.63
2018-02-19T21:57:51.140Z,30.00
2018-02-19T22:00:19.264Z,27.37
2018-02-19T22:02:48.163Z,31.93
2018-02-19T22:05:16.300Z,34.27
2018-02-19T22:07:45.110Z,29.70
2018-02-19T22:10:13.241Z,28.70
2018-02-19T22:12:41.435Z,26.60
2018-02-19T22:15:11.117Z,26.57
2018-02-19T22:17:39.266Z,27.80
2018-02-19T22:20:07.376Z,28.17
2018-02-19T22:22:35.557Z,27.43
2018-02-19T22:25:03.680Z,26.10
2018-02-19T22:27:31.841Z,25.97
2018-02-19T22:30:01.855Z,26.40
2018-02-19T22:32:30.770Z,26.00
2018-02-19T22:34:58.879Z,25.27
2018-02-19T22:37:29.273Z,31.23
2018-02-19T22:39:57.392Z,28.80
2018-02-19T22:42:25.533Z,27.80
2018-02-19T22:44:53.659Z,26.97
2018-02-19T22:47:23.256Z,24.17
2018-02-19T22:49:51.821Z,27.10
2018-02-19T22:52:19.952Z,28.17
2018-02-19T22:54:48.064Z,27.43
2018-02-19T22:57:16.981Z,28.60
2018-02-19T22:59:45.089Z,28.27
2018-02-19T23:02:13.233Z,29.93
2018-02-19T23:04:42.120Z,27.03
2018-02-19T23:07:10.257Z,28.63
2018-02-19T23:09:38.350Z,26.27
2018-02-19T23:12:06.475Z,26.03
2018-02-19T23:14:34.583Z,25.13
2018-02-19T23:17:02.714Z,25.20
2018-02-19T23:19:32.186Z,27.07
2018-02-19T23:22:00.289Z,29.10
2018-02-19T23:24:28.413Z,26.30
2018-02-19T23:26:56.719Z,27.07
2018-02-19T23:29:27.033Z,28.03
2018-02-19T23:31:55.126Z,27.30
2018-02-19T23:34:24.023Z,28.23
2018-02-19T23:36:52.898Z,26.17
2018-02-19T23:39:21.023Z,29.40
2018-02-19T23:41:49.810Z,27.27
2018-02-19T23:44:18.019Z,26.27
2018-02-19T23:46:46.118Z,23.57
2018-02-19T23:49:15.015Z,23.13
2018-02-19T23:51:43.122Z,23.50
2018-02-19T23:54:19.007Z,23.67
2018-02-19T23:56:47.116Z,25.13
2018-02-19T23:59:15.243Z,25.43
